Time;durP1;ratioP1;P1;durP2;ratioP2;P2;SDS_P1;SDS_P2;PMS_P1;PMS_P2;Temp;Humidity;BMP_temperature;BMP_pressure;BME280_temperature;BME280_humidity;BME280_pressure;Samples;Min_cycle;Max_cycle;Signal;HPM_P1;HPM_P2
2023/01/18 00:02:08;;;;;;;2.23;1.40;;;;;;;15.35;57.96;92851.06;5109255;28;20232;-51
2023/01/18 00:04:36;;;;;;;3.70;1.80;;;;;;;15.35;57.78;92832.25;5109002;28;20200;-52
2023/01/18 00:07:03;;;;;;;1.50;1.30;;;;;;;15.35;57.95;92858.78;5109476;28;20705;-51
2023/01/18 00:09:30;;;;;;;2.27;1.60;;;;;;;15.35;57.78;92848.50;5109778;28;20181;-53
2023/01/18 00:11:58;;;;;;;1.20;1.20;;;;;;;15.35;57.79;92845.91;5109136;28;20184;-51
2023/01/18 00:14:25;;;;;;;2.33;1.20;;;;;;;15.34;57.49;92817.81;5109100;28;20189;-52
2023/01/18 00:16:52;;;;;;;2.50;1.33;;;;;;;15.37;57.58;92836.22;5108801;28;20193;-52
2023/01/18 00:19:19;;;;;;;5.40;1.80;;;;;;;15.38;57.71;92852.44;5109049;28;20737;-52
2023/01/18 00:21:45;;;;;;;1.90;1.20;;;;;;;15.39;57.67;92846.28;5108907;28;20192;-51
2023/01/18 00:24:13;;;;;;;5.13;1.53;;;;;;;15.39;57.51;92820.53;5109165;28;20205;-51
2023/01/18 00:26:42;;;;;;;2.40;1.60;;;;;;;15.40;57.42;92811.78;5109046;28;20194;-53
2023/01/18 00:29:11;;;;;;;1.80;1.70;;;;;;;15.41;57.45;92816.72;5107397;28;20337;-52
2023/01/18 00:31:38;;;;;;;2.30;1.53;;;;;;;15.41;57.58;92826.25;5109174;28;20202;-50
2023/01/18 00:34:05;;;;;;;1.40;1.30;;;;;;;15.39;57.30;92799.94;5108960;28;20189;-52
2023/01/18 00:36:32;;;;;;;1.90;1.53;;;;;;;15.41;57.37;92785.81;5109101;28;20197;-51
2023/01/18 00:38:59;;;;;;;4.60;1.40;;;;;;;15.42;57.38;92820.13;5108803;28;20220;-50
2023/01/18 00:41:26;;;;;;;2.37;1.27;;;;;;;15.43;57.43;92813.94;5109060;28;20193;-51
2023/01/18 00:43:53;;;;;;;3.20;1.97;;;;;;;15.43;57.32;92837.91;5103621;28;20189;-52
2023/01/18 00:46:23;;;;;;;1.97;1.30;;;;;;;15.44;57.38;92826.59;5088417;28;20186;-50
2023/01/18 00:48:50;;;;;;;4.93;1.43;;;;;;;15.44;57.27;92836.91;5088450;28;20201;-52
2023/01/18 00:51:22;;;;;;;3.67;1.60;;;;;;;15.45;57.34;92846.22;5088509;28;20198;-52
2023/01/18 00:53:49;;;;;;;1.83;1.60;;;;;;;15.45;57.33;92845.44;5088540;28;20247;-53
2023/01/18 00:56:18;;;;;;;1.20;1.20;;;;;;;15.44;57.46;92851.59;5090269;28;20200;-54
2023/01/18 00:58:45;;;;;;;2.23;1.40;;;;;;;15.45;57.36;92855.72;5092280;28;20190;-53
2023/01/18 01:01:13;;;;;;;5.00;1.60;;;;;;;15.45;57.20;92835.13;5092436;28;20186;-50
2023/01/18 01:06:44;;;;;;;3.20;1.40;;;;;;;15.46;57.33;92860.69;5049231;28;20195;-52
2023/01/18 01:09:11;;;;;;;3.33;1.77;;;;;;;15.46;57.23;92877.94;5049212;28;20203;-51
2023/01/18 01:11:38;;;;;;;3.23;1.40;;;;;;;15.45;57.17;92871.19;5049351;28;20669;-52
2023/01/18 01:27:46;;;;;;;2.17;1.97;;;;;;;15.43;57.47;92855.94;5029330;28;20256;-53
2023/01/18 01:30:13;;;;;;;2.53;1.67;;;;;;;15.43;57.37;92847.44;5029198;28;20202;-54
2023/01/18 01:32:40;;;;;;;2.50;1.73;;;;;;;15.43;57.56;92850.00;5029862;28;20192;-52
2023/01/18 01:35:10;;;;;;;6.70;1.70;;;;;;;15.42;57.51;92827.84;5028639;28;20245;-52
2023/01/18 01:37:37;;;;;;;4.30;1.87;;;;;;;15.43;57.58;92847.44;5029147;28;20282;-50
2023/01/18 01:40:05;;;;;;;3.70;1.53;;;;;;;15.44;57.38;92818.88;5028846;28;20743;-51
2023/01/18 01:42:31;;;;;;;3.17;1.40;;;;;;;15.44;57.48;92854.94;5032257;28;20200;-52
2023/01/18 01:44:58;;;;;;;2.83;1.47;;;;;;;15.43;57.44;92879.13;5091344;28;20194;-51
2023/01/18 01:47:35;;;;;;;2.03;1.50;;;;;;;15.43;57.30;92834.56;5092386;28;20647;-50
2023/01/18 01:50:12;;;;;;;1.60;1.50;;;;;;;15.46;57.50;92832.34;5091776;28;20262;-52
2023/01/18 01:52:42;;;;;;;3.00;1.60;;;;;;;15.48;57.17;92858.66;5091547;28;20188;-52
2023/01/18 01:55:14;;;;;;;2.10;1.63;;;;;;;15.48;57.29;92856.09;5092042;28;20189;-50
2023/01/18 01:57:46;;;;;;;3.40;1.50;;;;;;;15.47;57.16;92877.72;5097253;28;20197;-50
2023/01/18 02:00:18;;;;;;;2.27;1.50;;;;;;;15.50;57.19;92890.19;5111599;28;20211;-50
2023/01/18 02:02:48;;;;;;;3.87;1.73;;;;;;;15.49;57.21;92862.81;5111917;28;20217;-49
2023/01/18 02:05:18;;;;;;;2.50;1.77;;;;;;;15.51;57.18;92898.69;5098248;28;20201;-52
2023/01/18 02:07:45;;;;;;;3.17;1.53;;;;;;;15.51;57.18;92889.16;5090996;28;20246;-51
2023/01/18 02:10:12;;;;;;;1.60;1.50;;;;;;;15.51;57.12;92871.13;5090881;28;20582;-50
2023/01/18 02:12:42;;;;;;;1.43;1.30;;;;;;;15.51;57.13;92893.53;5098683;28;20185;-51
2023/01/18 02:15:10;;;;;;;3.20;1.70;;;;;;;15.52;57.11;92871.91;5111148;28;20192;-51
2023/01/18 02:17:53;;;;;;;5.50;1.70;;;;;;;15.52;57.10;92879.66;5111104;28;20283;-51
2023/01/18 02:21:09;;;;;;;2.50;1.60;;;;;;;15.51;57.20;92894.31;5110614;28;20673;-53
2023/01/18 02:24:27;;;;;;;1.37;1.30;;;;;;;15.48;57.12;92905.03;5027732;28;20187;-50
2023/01/18 02:27:07;;;;;;;1.53;1.30;;;;;;;15.47;57.24;92885.44;5026260;28;20688;-51
2023/01/18 02:29:49;;;;;;;3.50;1.50;;;;;;;15.47;57.24;92885.44;5020594;28;20205;-52
2023/01/18 02:32:32;;;;;;;3.27;1.83;;;;;;;15.34;57.27;92880.41;5027852;28;20695;-50
2023/01/18 02:35:09;;;;;;;4.53;1.40;;;;;;;15.47;57.07;92900.91;5027710;28;20234;-53
2023/01/18 02:37:44;;;;;;;2.70;1.70;;;;;;;15.46;57.16;92927.66;5027447;28;20200;-54
2023/01/18 02:40:21;;;;;;;1.73;1.60;;;;;;;15.46;57.17;92891.59;5009584;28;20202;-51
2023/01/18 02:48:30;;;;;;;1.53;1.33;;;;;;;15.44;57.17;92865.25;5009331;28;20191;-51
2023/01/18 02:50:56;;;;;;;5.67;1.73;;;;;;;15.44;57.42;92885.84;5019245;28;20709;-50
2023/01/18 02:53:23;;;;;;;2.67;1.37;;;;;;;15.43;57.30;92866.25;5027632;28;20192;-51
2023/01/18 02:55:53;;;;;;;1.87;1.77;;;;;;;15.45;57.35;92895.16;5027638;28;20187;-51
2023/01/18 02:58:27;;;;;;;2.17;1.70;;;;;;;15.44;57.28;92952.03;5087117;28;20188;-51
2023/01/18 03:01:02;;;;;;;2.40;1.70;;;;;;;15.43;57.32;92886.06;5099427;28;20361;-51
2023/01/18 03:03:29;;;;;;;2.17;1.37;;;;;;;15.41;57.30;92912.03;5110056;28;20228;-50
2023/01/18 03:06:00;;;;;;;5.13;1.70;;;;;;;15.41;57.50;92883.69;5109860;28;20199;-51
2023/01/18 03:08:34;;;;;;;6.30;1.90;;;;;;;15.41;57.32;92903.50;5109843;28;20586;-51
2023/01/18 03:11:04;;;;;;;4.07;1.93;;;;;;;15.41;57.50;92893.22;5108002;28;20208;-51
2023/01/18 03:13:46;;;;;;;6.03;2.20;;;;;;;15.39;57.28;92920.97;5110141;28;20188;-49
2023/01/18 03:16:19;;;;;;;2.13;1.30;;;;;;;15.38;57.34;92914.25;5110579;28;20189;-51
2023/01/18 03:19:01;;;;;;;6.57;1.77;;;;;;;15.39;57.61;92895.22;5109495;28;20196;-50
2023/01/18 03:21:37;;;;;;;2.10;1.60;;;;;;;15.37;57.48;92874.03;5108261;28;20227;-51
2023/01/18 03:24:06;;;;;;;3.00;1.40;;;;;;;15.37;57.32;92872.25;5069156;28;20752;-50
2023/01/18 03:26:39;;;;;;;1.47;1.37;;;;;;;15.32;57.46;92861.78;5088349;28;20194;-50
2023/01/18 03:34:48;;;;;;;5.40;1.90;;;;;;;15.35;57.29;92881.97;5109198;28;20188;-51
2023/01/18 03:37:19;;;;;;;4.37;1.90;;;;;;;15.35;57.50;92920.59;5109030;28;20199;-51
2023/01/18 03:39:51;;;;;;;2.37;1.40;;;;;;;15.36;57.46;92931.69;5103124;28;20198;-51
2023/01/18 03:42:22;;;;;;;4.10;1.70;;;;;;;15.35;57.46;92884.56;5090399;28;20246;-52
2023/01/18 03:44:53;;;;;;;7.17;2.30;;;;;;;15.36;57.53;92887.91;5104620;28;20626;-52
2023/01/18 03:47:24;;;;;;;3.90;1.73;;;;;;;15.35;57.48;92886.34;5109085;28;20188;-51
2023/01/18 03:49:51;;;;;;;4.63;1.70;;;;;;;15.34;57.49;92834.03;5109786;28;20291;-50
2023/01/18 03:52:23;;;;;;;3.50;1.70;;;;;;;15.35;57.42;92879.41;5106680;28;20192;-48
2023/01/18 03:55:00;;;;;;;2.60;1.50;;;;;;;15.35;57.39;92936.06;5094258;28;20530;-50
2023/01/18 03:57:35;;;;;;;2.63;1.67;;;;;;;15.35;57.22;92889.69;5089013;28;20512;-52
2023/01/18 04:00:04;;;;;;;5.10;1.70;;;;;;;15.38;57.31;92873.03;5089205;28;20231;-50
2023/01/18 04:02:33;;;;;;;1.50;1.40;;;;;;;15.38;57.42;92888.50;5108524;28;20720;-49
2023/01/18 04:05:02;;;;;;;1.93;1.53;;;;;;;15.38;57.27;92878.19;5100623;28;20181;-49
2023/01/18 04:07:30;;;;;;;6.03;1.70;;;;;;;15.38;57.39;92878.97;5108469;28;20212;-49
2023/01/18 04:09:57;;;;;;;1.50;1.40;;;;;;;15.39;57.27;92906.31;5109376;28;20220;-50
2023/01/18 04:12:24;;;;;;;2.27;1.70;;;;;;;15.40;57.14;92917.41;5109224;28;20184;-49
2023/01/18 04:14:51;;;;;;;5.50;1.60;;;;;;;15.37;57.16;92904.94;5106882;28;20181;-49
2023/01/18 04:17:18;;;;;;;2.03;1.57;;;;;;;15.40;57.08;92920.75;5088749;28;20705;-50
2023/01/18 04:19:46;;;;;;;4.47;1.87;;;;;;;15.37;57.23;92908.31;5088767;28;20231;-50
2023/01/18 04:22:13;;;;;;;1.60;1.50;;;;;;;15.41;57.09;92918.97;5090034;28;20629;-49
2023/01/18 04:24:40;;;;;;;3.50;1.60;;;;;;;15.41;57.03;92924.91;5107611;28;20653;-49
2023/01/18 04:27:07;;;;;;;3.77;1.70;;;;;;;15.41;56.92;92886.25;5109242;28;20292;-51
2023/01/18 04:29:33;;;;;;;1.47;1.37;;;;;;;15.41;57.09;92890.63;5110178;28;20637;-51
2023/01/18 04:32:01;;;;;;;3.43;1.77;;;;;;;15.40;56.97;92889.84;5108042;28;20578;-49
2023/01/18 04:34:28;;;;;;;3.70;1.80;;;;;;;15.40;57.19;92882.13;5113137;28;20192;-51
2023/01/18 04:36:56;;;;;;;4.40;1.90;;;;;;;15.39;57.09;92883.13;5104074;28;20701;-51
2023/01/18 04:39:23;;;;;;;3.53;1.40;;;;;;;15.37;57.18;92922.97;5093909;28;20192;-53
2023/01/18 04:41:50;;;;;;;3.30;1.50;;;;;;;15.40;57.17;92930.28;5100097;28;20239;-54
2023/01/18 04:44:17;;;;;;;2.40;2.03;;;;;;;15.38;57.00;92916.84;5096529;28;21004;-53
2023/01/18 04:46:44;;;;;;;3.57;1.57;;;;;;;15.37;57.16;92859.38;5092824;28;20181;-52
2023/01/18 04:49:16;;;;;;;2.57;1.53;;;;;;;15.37;57.08;92905.75;5092650;28;20185;-51
2023/01/18 04:51:43;;;;;;;1.50;1.40;;;;;;;15.39;57.04;92880.56;5097428;28;20181;-51
2023/01/18 04:54:13;;;;;;;1.63;1.40;;;;;;;15.39;57.05;92857.38;5101015;28;20189;-52
2023/01/18 04:56:40;;;;;;;3.87;2.00;;;;;;;15.39;57.10;92862.53;5105298;28;20250;-49
2023/01/18 04:59:06;;;;;;;4.20;1.83;;;;;;;15.79;78.42;92888.72;5110574;28;20177;-52
2023/01/18 05:01:34;;;;;;;5.20;2.30;;;;;;;16.33;77.83;92850.25;5092036;28;20224;-52
2023/01/18 05:04:02;;;;;;;22.43;1.83;;;;;;;16.78;76.24;92850.63;5092373;28;20212;-50
2023/01/18 05:06:29;;;;;;;6.43;1.50;;;;;;;17.21;74.49;92877.22;5092191;28;20194;-49
2023/01/18 05:08:55;;;;;;;2.63;1.47;;;;;;;17.54;72.46;92856.03;5107288;28;20182;-51
2023/01/18 05:11:23;;;;;;;3.10;1.50;;;;;;;17.78;70.85;92924.81;5112143;28;20292;-50
2023/01/18 05:13:51;;;;;;;4.53;1.73;;;;;;;17.84;69.56;92847.38;5111426;28;20641;-49
2023/01/18 05:16:19;;;;;;;2.93;1.40;;;;;;;17.78;68.46;92861.97;5097823;28;20574;-49
2023/01/18 05:18:46;;;;;;;6.50;1.63;;;;;;;17.68;67.52;92919.41;5091821;28;20705;-52
2023/01/18 05:21:14;;;;;;;2.73;1.67;;;;;;;17.58;66.63;92880.41;5098097;28;20285;-51
2023/01/18 05:23:41;;;;;;;5.87;1.80;;;;;;;17.45;65.78;92872.88;5097385;28;20193;-54
2023/01/18 05:26:13;;;;;;;11.20;1.70;;;;;;;17.35;64.92;92865.66;5104170;28;20185;-53
2023/01/18 05:28:42;;;;;;;7.37;1.83;;;;;;;17.23;64.20;92899.25;5092002;28;20193;-52
2023/01/18 05:31:09;;;;;;;3.17;1.53;;;;;;;17.12;63.66;92919.88;5092644;28;20197;-53
2023/01/18 05:33:36;;;;;;;5.97;1.90;;;;;;;17.02;63.04;92931.53;5091804;28;20185;-53
2023/01/18 05:36:03;;;;;;;3.63;1.60;;;;;;;16.93;62.55;92940.63;5091201;28;20827;-52
2023/01/18 05:38:30;;;;;;;2.83;1.40;;;;;;;16.84;62.33;92879.97;5093060;28;20593;-49
2023/01/18 05:40:57;;;;;;;4.47;1.90;;;;;;;16.74;61.88;92906.28;5091404;28;20212;-52
2023/01/18 05:43:25;;;;;;;6.67;1.73;;;;;;;16.69;61.52;92957.75;5091254;28;20228;-49
2023/01/18 05:45:54;;;;;;;3.57;1.80;;;;;;;16.63;61.23;92901.88;5090827;28;20193;-52
2023/01/18 05:48:21;;;;;;;5.00;1.53;;;;;;;16.55;60.96;92909.91;5091321;28;20209;-52
2023/01/18 05:50:48;;;;;;;2.03;1.60;;;;;;;16.54;60.74;92939.31;5091139;28;20186;-51
2023/01/18 05:53:17;;;;;;;3.47;1.83;;;;;;;16.47;60.50;92934.22;5082752;28;20259;-52
2023/01/18 05:55:52;;;;;;;4.03;1.90;;;;;;;16.44;60.22;92900.31;5098481;28;20208;-50
2023/01/18 05:58:19;;;;;;;3.33;2.03;;;;;;;16.39;60.10;92931.91;5112064;28;20188;-51
2023/01/18 06:00:46;;;;;;;1.53;1.43;;;;;;;16.35;59.70;92951.41;5111645;28;20239;-50
2023/01/18 06:03:14;;;;;;;6.23;1.70;;;;;;;16.30;59.60;92959.78;5096363;28;20221;-50
2023/01/18 06:05:41;;;;;;;3.20;1.67;;;;;;;16.29;59.67;92936.81;5091772;28;20186;-51
2023/01/18 06:08:08;;;;;;;4.60;1.70;;;;;;;16.26;59.27;92930.28;5092318;28;20216;-52
2023/01/18 06:10:35;;;;;;;3.93;1.83;;;;;;;16.22;59.16;92925.75;5091327;28;20186;-53
2023/01/18 06:13:02;;;;;;;3.77;1.63;;;;;;;16.21;59.23;92960.31;5091638;28;20193;-50
2023/01/18 06:15:28;;;;;;;5.37;1.80;;;;;;;16.20;59.06;92967.25;5091323;28;20200;-51
2023/01/18 06:17:56;;;;;;;4.00;1.60;;;;;;;16.19;58.97;92945.06;5091022;28;20200;-48
2023/01/18 06:20:29;;;;;;;4.67;1.70;;;;;;;16.14;58.76;92937.16;5091248;28;20576;-51
2023/01/18 06:22:56;;;;;;;4.10;2.07;;;;;;;16.17;58.68;92959.16;5090956;28;20599;-52
2023/01/18 06:25:23;;;;;;;1.70;1.40;;;;;;;16.19;58.52;92934.72;5091045;28;20299;-50
2023/01/18 06:27:50;;;;;;;3.53;1.80;;;;;;;16.17;58.42;92959.16;5091083;28;20199;-50
2023/01/18 06:30:18;;;;;;;4.40;1.63;;;;;;;16.21;58.20;92963.66;5091047;28;20683;-51
2023/01/18 06:32:45;;;;;;;8.93;1.70;;;;;;;16.31;58.10;92976.06;5091017;28;20543;-50
2023/01/18 06:35:12;;;;;;;6.13;1.77;;;;;;;16.45;57.74;92946.53;5091091;28;20185;-49
2023/01/18 06:37:41;;;;;;;2.07;1.60;;;;;;;16.66;57.43;92989.16;5090804;28;20196;-49
2023/01/18 06:40:09;;;;;;;5.80;1.83;;;;;;;17.01;57.18;92998.88;5090786;28;20186;-48
2023/01/18 06:42:36;;;;;;;1.50;1.40;;;;;;;17.39;56.93;92926.22;5090381;28;20221;-52
2023/01/18 06:45:03;;;;;;;2.80;1.80;;;;;;;17.83;56.85;92954.38;5090605;28;20268;-51
2023/01/18 06:47:30;;;;;;;2.57;2.10;;;;;;;18.28;56.61;92947.63;5090508;28;20661;-50
2023/01/18 06:49:57;;;;;;;4.03;1.83;;;;;;;18.79;55.88;92953.81;5090146;28;20192;-51
2023/01/18 06:52:24;;;;;;;2.17;1.97;;;;;;;19.37;55.66;92962.34;5089961;28;20201;-49
2023/01/18 06:54:53;;;;;;;4.57;1.90;;;;;;;19.92;54.82;92964.28;5089704;28;20196;-50
2023/01/18 06:57:19;;;;;;;4.13;1.73;;;;;;;20.46;54.42;92933.31;5090321;28;20276;-51
2023/01/18 06:59:46;;;;;;;7.63;1.97;;;;;;;20.99;53.43;92965.66;5090144;28;20189;-49
2023/01/18 07:02:15;;;;;;;4.57;1.70;;;;;;;21.52;52.58;92945.91;5090018;28;20316;-51
2023/01/18 07:04:44;;;;;;;4.33;2.07;;;;;;;22.03;51.60;92968.94;5089926;28;20271;-51
2023/01/18 07:07:11;;;;;;;4.15;1.60;;;;;;;22.51;50.79;92954.91;5089972;28;20276;-52
2023/01/18 07:09:38;;;;;;;5.55;1.85;;;;;;;22.98;50.26;92955.91;5090153;28;20182;-52
2023/01/18 07:12:06;;;;;;;3.90;1.70;;;;;;;23.44;49.65;92959.34;5089924;28;20235;-51
2023/01/18 07:14:33;;;;;;;3.97;2.05;;;;;;;23.88;48.74;92932.00;5089847;28;20189;-49
2023/01/18 07:17:00;;;;;;;5.55;1.70;;;;;;;24.29;48.07;92992.78;5090143;28;20197;-50
2023/01/18 07:19:27;;;;;;;4.75;2.13;;;;;;;24.67;47.49;92943.59;5089743;28;20543;-53
2023/01/18 07:21:54;;;;;;;6.93;1.98;;;;;;;25.03;46.75;92936.38;5089538;28;20229;-50
2023/01/18 07:24:21;;;;;;;5.18;1.73;;;;;;;25.39;46.47;92957.09;5089905;28;20186;-51
2023/01/18 07:26:48;;;;;;;6.88;1.70;;;;;;;25.73;45.96;92964.97;5089811;28;20186;-52
2023/01/18 07:29:16;;;;;;;3.38;1.90;;;;;;;26.07;45.29;92974.69;5089763;28;20201;-52
2023/01/18 07:31:43;;;;;;;3.05;1.55;;;;;;;26.36;44.54;92948.50;5089211;28;20197;-51
2023/01/18 07:34:10;;;;;;;7.35;1.73;;;;;;;26.63;43.69;92961.06;5089405;28;20643;-53
2023/01/18 07:36:38;;;;;;;4.53;1.40;;;;;;;26.89;43.44;92967.59;5089388;28;20211;-52
2023/01/18 07:39:05;;;;;;;6.28;2.08;;;;;;;27.12;43.32;92958.16;5087824;28;20293;-51
2023/01/18 07:41:32;;;;;;;2.45;1.75;;;;;;;27.40;42.91;92963.56;5089239;28;20218;-53
2023/01/18 07:43:59;;;;;;;2.60;1.77;;;;;;;27.64;42.39;93008.13;5089043;28;20185;-55
2023/01/18 07:46:27;;;;;;;4.03;1.35;;;;;;;27.88;41.83;92984.41;5089153;28;20194;-55
2023/01/18 07:48:54;;;;;;;4.57;2.03;;;;;;;28.09;41.80;92969.88;5088979;28;20193;-52
2023/01/18 07:51:22;;;;;;;4.20;1.80;;;;;;;28.24;40.97;92988.03;5089157;28;20593;-53
2023/01/18 07:53:53;;;;;;;4.88;1.80;;;;;;;28.34;40.74;93031.00;5089100;28;20213;-51
2023/01/18 07:56:21;;;;;;;4.03;1.52;;;;;;;28.42;40.57;93054.81;5089046;28;20223;-51
2023/01/18 07:58:48;;;;;;;2.60;1.60;;;;;;;28.47;40.16;93051.31;5089308;28;20281;-55
2023/01/18 08:01:17;;;;;;;5.85;1.65;;;;;;;28.33;40.71;93029.44;5089075;28;20304;-53
2023/01/18 08:03:47;;;;;;;3.92;1.40;;;;;;;28.04;40.95;93063.78;5088267;28;20262;-51
2023/01/18 08:06:15;;;;;;;5.03;1.63;;;;;;;27.70;41.21;93096.28;5088926;28;20186;-51
2023/01/18 08:08:43;;;;;;;5.07;1.58;;;;;;;27.19;41.81;93079.31;5088650;28;20189;-52
2023/01/18 08:11:11;;;;;;;4.50;1.80;;;;;;;27.04;41.73;93082.09;5088951;28;20541;-50
2023/01/18 08:13:38;;;;;;;6.85;1.88;;;;;;;26.86;41.29;93091.47;5088627;28;20194;-52
2023/01/18 08:16:07;;;;;;;4.35;2.17;;;;;;;26.72;41.00;93112.28;5088982;28;20315;-52
2023/01/18 08:18:34;;;;;;;9.70;2.05;;;;;;;26.51;41.03;93098.59;5088707;28;20201;-51
2023/01/18 08:21:03;;;;;;;2.78;1.40;;;;;;;26.29;41.50;93137.50;5088668;28;20714;-53
2023/01/18 08:23:30;;;;;;;4.88;1.70;;;;;;;26.62;40.37;93128.13;5088708;28;20955;-51
2023/01/18 08:26:01;;;;;;;3.72;1.70;;;;;;;26.90;39.41;93144.94;5088803;28;20196;-52
2023/01/18 08:28:27;;;;;;;3.28;1.48;;;;;;;26.76;39.22;93130.88;5088864;28;20197;-50
2023/01/18 08:31:06;;;;;;;3.83;1.60;;;;;;;26.25;39.86;93131.25;5088569;28;20247;-52
2023/01/18 08:33:36;;;;;;;4.43;2.15;;;;;;;25.77;40.13;93108.22;5088864;28;20185;-51
2023/01/18 08:36:05;;;;;;;7.20;1.70;;;;;;;25.44;41.04;93103.66;5088975;28;20185;-50
2023/01/18 08:38:32;;;;;;;5.30;1.75;;;;;;;25.25;40.66;93137.47;5088236;28;20197;-53
2023/01/18 08:41:02;;;;;;;7.15;2.17;;;;;;;24.94;41.31;93123.66;5088661;28;20215;-51
2023/01/18 08:43:29;;;;;;;5.72;2.00;;;;;;;24.61;41.74;93125.00;5088362;28;20186;-50
2023/01/18 08:45:56;;;;;;;4.82;1.70;;;;;;;24.31;42.08;93120.53;5088523;28;20601;-54
2023/01/18 08:48:22;;;;;;;2.75;1.40;;;;;;;24.04;42.57;93105.91;5088823;28;20190;-52
2023/01/18 08:50:49;;;;;;;5.47;1.70;;;;;;;23.82;42.85;93134.84;5089243;28;20200;-54
2023/01/18 08:53:17;;;;;;;2.97;1.70;;;;;;;23.61;42.84;93127.97;5088617;28;20598;-51
2023/01/18 08:55:44;;;;;;;2.97;1.50;;;;;;;23.45;43.08;93127.94;5089112;28;20574;-50
2023/01/18 08:58:12;;;;;;;2.63;1.60;;;;;;;23.36;43.07;93129.47;5088966;28;20197;-53
2023/01/18 09:00:39;;;;;;;5.78;1.70;;;;;;;23.21;43.47;93130.16;5088628;28;20229;-52
2023/01/18 09:03:06;;;;;;;4.72;1.73;;;;;;;23.04;43.50;93116.50;5088691;28;20237;-54
2023/01/18 09:05:34;;;;;;;4.78;1.98;;;;;;;22.85;44.05;93129.16;5088501;28;20200;-52
2023/01/18 09:08:01;;;;;;;5.38;1.77;;;;;;;22.67;43.96;93137.38;5088426;28;20194;-51
2023/01/18 09:10:31;;;;;;;2.88;1.35;;;;;;;22.52;44.39;93158.88;5088480;28;20262;-55
2023/01/18 09:12:58;;;;;;;9.48;1.90;;;;;;;22.36;44.56;93149.38;5088700;28;20330;-52
2023/01/18 09:15:25;;;;;;;2.97;1.90;;;;;;;22.22;44.59;93143.78;5088507;28;20206;-51
2023/01/18 09:17:52;;;;;;;5.20;2.08;;;;;;;22.09;45.05;93157.97;5091542;28;20615;-51
2023/01/18 09:20:19;;;;;;;5.97;2.22;;;;;;;21.97;44.85;93157.31;5092019;28;20182;-52
2023/01/18 09:22:47;;;;;;;3.63;1.80;;;;;;;21.82;45.13;93173.59;5091747;28;20218;-52
2023/01/18 09:25:16;;;;;;;5.38;1.80;;;;;;;21.74;44.91;93184.41;5092041;28;20193;-52
2023/01/18 09:27:45;;;;;;;7.47;2.03;;;;;;;21.65;45.21;93199.66;5091971;28;20194;-52
2023/01/18 09:30:14;;;;;;;7.75;1.80;;;;;;;21.57;45.30;93201.91;5091937;28;20262;-52
2023/01/18 09:32:41;;;;;;;4.20;1.70;;;;;;;21.47;45.63;93202.56;5092113;28;20197;-53
2023/01/18 09:35:09;;;;;;;2.60;1.58;;;;;;;21.37;45.50;93205.03;5091706;28;20190;-53
2023/01/18 09:37:36;;;;;;;4.88;1.80;;;;;;;21.30;45.94;93197.38;5091626;28;20201;-53
2023/01/18 09:40:03;;;;;;;4.90;1.98;;;;;;;21.25;45.97;93197.31;5091863;28;20189;-51
2023/01/18 09:42:36;;;;;;;6.80;1.85;;;;;;;21.20;46.15;93220.63;5091723;28;20221;-51
2023/01/18 09:45:05;;;;;;;6.95;2.15;;;;;;;21.15;46.25;93204.97;5091727;28;20311;-52
2023/01/18 09:47:37;;;;;;;5.30;1.95;;;;;;;21.10;45.93;93210.09;5091457;28;20190;-51
2023/01/18 09:50:14;;;;;;;3.17;1.83;;;;;;;21.04;46.24;93196.25;5091624;28;20381;-52
2023/01/18 09:52:53;;;;;;;4.50;1.80;;;;;;;20.97;46.21;93180.03;5091617;28;20189;-52
2023/01/18 09:55:26;;;;;;;5.50;2.40;;;;;;;20.86;46.12;93192.09;5091446;28;20198;-49
2023/01/18 09:58:11;;;;;;;4.65;1.88;;;;;;;20.88;46.10;93181.47;5091815;28;20396;-50
2023/01/18 10:00:43;;;;;;;5.50;1.83;;;;;;;20.85;46.51;93184.53;5091626;28;20200;-51
2023/01/18 10:03:16;;;;;;;4.00;1.95;;;;;;;20.82;46.52;93174.63;5091431;28;20230;-50
2023/01/18 10:05:52;;;;;;;7.05;2.10;;;;;;;20.78;46.67;93158.72;5091085;28;20686;-52
2023/01/18 10:08:27;;;;;;;2.38;1.48;;;;;;;20.75;46.54;93156.59;5091241;28;20193;-53
2023/01/18 10:11:04;;;;;;;4.25;2.03;;;;;;;20.73;46.45;93158.66;5091578;28;20191;-50
2023/01/18 10:13:42;;;;;;;3.67;1.70;;;;;;;20.68;46.34;93148.16;5091480;28;20193;-51
2023/01/18 10:16:15;;;;;;;4.03;1.75;;;;;;;20.69;46.58;93155.75;5091084;28;20193;-52
2023/01/18 10:18:46;;;;;;;4.13;1.70;;;;;;;20.69;46.58;93144.56;5090807;28;20681;-54
2023/01/18 10:21:22;;;;;;;2.40;1.60;;;;;;;20.68;46.61;93167.16;5091243;28;20751;-51
2023/01/18 10:24:04;;;;;;;7.10;1.57;;;;;;;20.66;46.49;93129.44;5090489;28;20201;-52
2023/01/18 10:26:33;;;;;;;6.47;1.90;;;;;;;20.66;46.30;93138.03;5090813;28;20643;-50
2023/01/18 10:29:05;;;;;;;3.13;1.93;;;;;;;20.67;46.51;93139.59;5090418;28;20189;-52
2023/01/18 10:31:45;;;;;;;4.50;2.30;;;;;;;20.67;46.17;93154.38;5090858;28;20251;-51
2023/01/18 10:34:18;;;;;;;7.00;2.23;;;;;;;20.68;46.12;93141.19;5090622;28;20711;-53
2023/01/18 10:36:48;;;;;;;3.63;1.77;;;;;;;20.67;46.50;93151.78;5090172;28;20190;-52
2023/01/18 10:39:26;;;;;;;3.45;1.85;;;;;;;20.67;46.26;93149.19;5090234;28;20307;-54
2023/01/18 10:41:57;;;;;;;2.47;1.63;;;;;;;20.68;46.06;93187.94;5090347;28;20249;-50
2023/01/18 10:44:24;;;;;;;6.45;1.92;;;;;;;20.58;46.08;93174.00;5090155;28;20276;-52
2023/01/18 10:46:57;;;;;;;4.60;2.33;;;;;;;20.72;46.06;93193.44;5090298;28;20194;-50
2023/01/18 10:49:38;;;;;;;3.05;1.63;;;;;;;20.73;45.91;93214.00;5089851;28;20217;-51
2023/01/18 10:52:24;;;;;;;5.30;1.83;;;;;;;20.76;45.57;93213.50;5090274;28;20192;-50
2023/01/18 10:54:54;;;;;;;3.97;1.90;;;;;;;20.75;45.95;93191.16;5089818;28;20639;-52
2023/01/18 10:57:25;;;;;;;5.67;2.00;;;;;;;20.75;46.08;93211.16;5090035;28;20189;-50
2023/01/18 10:59:53;;;;;;;5.93;1.87;;;;;;;20.74;45.94;93212.97;5090024;28;20201;-52
2023/01/18 11:02:26;;;;;;;6.13;1.90;;;;;;;20.78;45.85;93201.06;5089642;28;20632;-53
2023/01/18 11:04:58;;;;;;;2.30;1.63;;;;;;;20.80;45.83;93198.22;5089909;28;20208;-51
2023/01/18 11:07:27;;;;;;;4.73;1.90;;;;;;;20.80;45.83;93196.41;5089768;28;20182;-54
2023/01/18 11:09:58;;;;;;;3.00;2.15;;;;;;;20.81;45.62;93168.63;5089475;28;20243;-50
2023/01/18 11:12:35;;;;;;;4.05;1.98;;;;;;;20.81;45.98;93202.41;5089402;28;20197;-51
2023/01/18 11:15:26;;;;;;;3.63;1.98;;;;;;;20.82;45.80;93185.03;5089475;28;20197;-52
2023/01/18 11:18:02;;;;;;;6.83;2.20;;;;;;;20.82;45.68;93152.03;5089389;28;20625;-52
2023/01/18 11:20:36;;;;;;;4.68;1.50;;;;;;;20.79;45.80;93163.66;5089187;28;20204;-52
2023/01/18 11:23:07;;;;;;;4.22;1.90;;;;;;;20.84;45.63;93172.56;5089459;28;20225;-53
2023/01/18 11:25:40;;;;;;;3.03;1.83;;;;;;;20.83;45.69;93142.41;5089451;28;20236;-51
2023/01/18 11:28:20;;;;;;;3.05;1.75;;;;;;;20.86;45.56;93191.31;5089704;28;20193;-50
2023/01/18 11:30:52;;;;;;;5.85;2.08;;;;;;;20.78;45.78;93154.31;5089265;28;20200;-52
2023/01/18 11:33:22;;;;;;;3.17;1.83;;;;;;;20.86;45.53;93147.16;5089936;28;20201;-52
2023/01/18 11:35:54;;;;;;;5.40;1.70;;;;;;;20.83;45.63;93145.81;5089592;28;20189;-53
2023/01/18 11:38:26;;;;;;;2.80;1.70;;;;;;;20.84;45.64;93136.19;5089685;28;20303;-52
2023/01/18 11:41:03;;;;;;;8.48;2.20;;;;;;;20.83;45.57;93165.81;5088344;28;20194;-50
2023/01/18 11:43:32;;;;;;;5.85;2.00;;;;;;;20.84;45.47;93156.97;5088952;28;20598;-51
2023/01/18 11:46:06;;;;;;;5.73;1.80;;;;;;;20.85;45.46;93180.13;5088853;28;20213;-54
2023/01/18 11:48:42;;;;;;;8.95;2.25;;;;;;;20.86;45.52;93158.31;5089416;28;20193;-52
2023/01/18 11:51:19;;;;;;;8.20;2.35;;;;;;;20.85;45.47;93163.75;5088845;28;20691;-53
2023/01/18 11:53:55;;;;;;;3.25;1.63;;;;;;;20.86;45.26;93184.31;5089149;28;20518;-51
2023/01/18 11:56:32;;;;;;;4.93;1.90;;;;;;;20.80;45.29;93180.03;5088770;28;20189;-51
2023/01/18 11:58:59;;;;;;;6.72;2.10;;;;;;;20.83;45.36;93165.81;5088901;28;20205;-50
2023/01/18 12:01:51;;;;;;;7.32;1.90;;;;;;;20.81;45.42;93171.22;5089146;28;20197;-54
2023/01/18 12:04:30;;;;;;;4.50;1.90;;;;;;;20.79;45.49;93160.28;5088736;28;20304;-53
2023/01/18 12:07:06;;;;;;;9.10;2.50;;;;;;;20.77;45.49;93131.19;5089002;28;20579;-54
2023/01/18 12:09:39;;;;;;;4.43;2.03;;;;;;;20.92;45.22;93162.56;5088558;28;20574;-54
2023/01/18 12:12:23;;;;;;;5.05;1.95;;;;;;;20.94;45.33;93167.50;5088977;28;20663;-52
2023/01/18 12:15:05;;;;;;;6.63;2.20;;;;;;;21.03;45.12;93166.88;5089275;28;20234;-52
2023/01/18 12:17:51;;;;;;;10.90;2.57;;;;;;;21.11;45.23;93157.88;5088997;28;20316;-52